Bei Facebook empfehlenBei Twitter postenGoogle plusPinterest

Das Wetter im Erzgebirge am 20.03.2015

Wetter und Klima am 20.03.2015 Holzhau im Erzgebirge (630m ü.NN)
Letzte gemessene Temperatur und Uhrzeit der Messung23:45:00 Uhr-2.60 °C
Temperatur (Maximum / Höchstwert) und Uhrzeit der Messung15:15:00 Uhr12.90 °C
Temperatur (Minimum / Tiefstwert) und Uhrzeit der Messung07:00:00-5.20 °C
Errechneter Absolutwert der Temperaturschwankungen zwischen Tmin und Tmax des Tages18.10 K
Errechnete Tagesmitteltemperatur2.25521 °C
Gesamt - Niederschlag des Tages (in flüssiger Form)0.00 Liter / m²
Luftdruck (Maximum / Höchstwert) und Zeitpunkt der Messung00:45:00 Uhr1022.40 hPa
Luftdruck (Minimum / Tiefstwert) und Zeitpunkt der Messung23:45:00 Uhr1015.30 hPa
Errechneter Absolutwert der Luftdruckschwankungen des Tages7.10 hPa
Höchste gemessene Windgeschwindigkeit und Uhrzeit der Messung05:00:00 Uhr5.76 km/h
Errechnete Windhäufigkeit in Relation zu den Messwerten des Tages1.04167 %
Niedrigste Windkühle (Windchill) und Zeitpunkt der Messung05:00:00 Uhr-7.10 °C
Taupunkt (Maximum / Höchstwert) und Uhrzeit der Messung09:45:00 Uhr1.40 °C
Taupunkt (Minimum / Tiefstwert) und Uhrzeit der Messung07:00:00-7.20 °C
Anzahl der automatisch eingelesenen Messwerte 96

Detaillierte Wetter- und Klima- Messwerte für den 20.03.2015 in Holzhau im Erzgebirge (630m ü.NN)
ZeitTemperaturLuftdruckRel. LuftfeuchteWindWindrichtungWindchillTaupunktNiederschlag l/m²
23:45:00-2.60 °C1015.30 hPa81.00 %-5.70 °C 
23:30:00-2.70 °C1015.40 hPa81.00 %-5.80 °C 
23:15:00-2.50 °C1015.60 hPa80.00 %-5.80 °C 
23:00:00-2.50 °C1015.70 hPa79.00 %-6.00 °C 
22:45:00-2.40 °C1016.00 hPa79.00 %-5.90 °C 
22:30:00-2.20 °C1016.20 hPa78.00 %-5.90 °C 
22:15:00-2.10 °C1016.20 hPa77.00 %-6.00 °C 
22:00:00-1.80 °C1016.40 hPa76.00 %-5.90 °C 
21:45:00-1.50 °C1016.60 hPa76.00 %-5.60 °C 
21:30:00-1.10 °C1016.70 hPa75.00 %-5.40 °C 
21:15:00-1.10 °C1016.70 hPa76.00 %-5.20 °C 
21:00:00-1.10 °C1016.80 hPa74.00 %-5.60 °C 
20:45:00-0.80 °C1016.90 hPa74.00 %-5.30 °C 
20:30:00-0.80 °C1017.00 hPa72.00 %-5.70 °C 
20:15:00-0.40 °C1017.10 hPa71.00 %-5.50 °C 
20:00:00-0.10 °C1017.20 hPa70.00 %-5.50 °C 
19:45:000.20 °C1017.50 hPa69.00 %-4.80 °C 
19:30:000.50 °C1017.30 hPa67.00 %-4.90 °C 
19:15:001.20 °C1017.30 hPa64.00 %-4.80 °C 
19:00:001.80 °C1017.30 hPa63.00 %-4.50 °C 
18:45:002.60 °C1017.50 hPa60.00 %-4.40 °C 
18:30:003.80 °C1017.30 hPa55.00 %-4.40 °C 
18:15:005.20 °C1017.40 hPa51.00 %-4.10 °C 
18:00:006.90 °C1017.20 hPa47.00 %-3.60 °C 
17:45:008.60 °C1017.50 hPa43.00 %-3.30 °C 
17:30:009.50 °C1017.50 hPa41.00 %-3.10 °C 
17:15:009.90 °C1017.50 hPa40.00 %-3.00 °C 
17:00:0010.30 °C1017.60 hPa40.00 %-2.70 °C 
16:45:0011.10 °C1017.70 hPa38.00 %-2.70 °C 
16:30:0011.80 °C1017.90 hPa37.00 %-2.40 °C 
16:15:0012.20 °C1018.00 hPa36.00 %-2.40 °C 
16:00:0012.40 °C1018.20 hPa36.00 %-2.20 °C 
15:45:0012.50 °C1018.30 hPa36.00 %-2.10 °C 
15:30:0012.50 °C1018.30 hPa36.00 %-2.10 °C 
15:15:0012.90 °C1018.60 hPa36.00 %-1.80 °C 
15:00:0012.90 °C1018.70 hPa37.00 %-1.40 °C 
14:45:0012.90 °C1018.60 hPa36.00 %-1.80 °C 
14:30:0012.60 °C1018.90 hPa34.00 %-2.80 °C 
14:15:0012.60 °C1018.80 hPa36.00 %-2.10 °C 
14:00:0012.90 °C1019.10 hPa38.00 %-1.10 °C 
13:45:0012.50 °C1019.20 hPa38.00 %-1.40 °C 
13:30:0012.20 °C1019.40 hPa39.00 %-1.30 °C 
13:15:0011.80 °C1019.60 hPa41.00 %-1.00 °C 
13:00:0011.40 °C1019.70 hPa41.00 %-1.40 °C 
12:45:0011.30 °C1020.10 hPa43.00 %-0.80 °C 
12:30:0010.90 °C1020.10 hPa47.00 %0.00 °C 
12:15:0010.20 °C1020.20 hPa50.00 %0.30 °C 
12:00:008.90 °C1020.30 hPa53.00 %-0.10 °C 
11:45:007.70 °C1020.40 hPa55.00 %-0.80 °C 
11:30:006.30 °C1020.50 hPa58.00 %-1.30 °C 
11:15:005.40 °C1020.50 hPa57.00 %-2.40 °C 
11:00:005.60 °C1020.40 hPa53.00 %-3.20 °C 
10:45:006.30 °C1020.70 hPa52.00 %-2.80 °C 
10:30:007.30 °C1020.60 hPa52.00 %-1.90 °C 
10:15:007.90 °C1020.80 hPa56.00 %-0.30 °C 
10:00:007.80 °C1021.00 hPa58.00 %0.10 °C 
09:45:006.90 °C1021.10 hPa68.00 %1.40 °C 
09:30:005.50 °C1021.10 hPa74.00 %1.20 °C 
09:15:003.70 °C1021.20 hPa79.00 %0.40 °C 
09:00:002.20 °C1021.20 hPa82.00 %-0.50 °C 
08:45:000.80 °C1021.30 hPa83.00 %-1.80 °C 
08:30:00-0.40 °C1021.20 hPa85.00 %-2.90 °C 
08:15:00-1.60 °C1021.40 hPa86.00 %-3.90 °C 
08:00:00-2.70 °C1021.50 hPa87.00 %-4.80 °C 
07:45:00-3.60 °C1021.60 hPa88.00 %-5.50 °C 
07:30:00-4.60 °C1021.40 hPa87.00 %-6.70 °C 
07:15:00-5.00 °C1021.40 hPa87.00 %-7.00 °C 
07:00:00-5.20 °C1021.40 hPa87.00 %-7.20 °C 
06:45:00-5.20 °C1021.40 hPa87.00 %-7.20 °C 
06:30:00-5.10 °C1021.30 hPa87.00 %-7.10 °C 
06:15:00-5.00 °C1021.30 hPa87.00 %-7.00 °C 
06:00:00-5.00 °C1021.30 hPa87.00 %-7.00 °C 
05:45:00-4.80 °C1021.20 hPa86.00 %-7.00 °C 
05:30:00-4.70 °C1021.30 hPa86.00 %-6.90 °C 
05:15:00-4.40 °C1021.40 hPa86.00 %-6.60 °C 
05:00:00-4.50 °C1021.20 hPa86.00 %5.76 km/hSO-7.10 °C-6.70 °C 
04:45:00-4.40 °C1021.20 hPa85.00 %-6.80 °C 
04:30:00-4.10 °C1021.20 hPa85.00 %-6.50 °C 
04:15:00-3.80 °C1021.20 hPa86.00 %-6.00 °C 
04:00:00-3.90 °C1021.20 hPa85.00 %-6.30 °C 
03:45:00-3.80 °C1021.30 hPa86.00 %-6.00 °C 
03:30:00-3.90 °C1021.40 hPa85.00 %-6.30 °C 
03:15:00-3.90 °C1021.60 hPa85.00 %-6.30 °C 
03:00:00-3.70 °C1021.80 hPa85.00 %-6.10 °C 
02:45:00-3.60 °C1021.80 hPa84.00 %-6.20 °C 
02:30:00-3.50 °C1021.90 hPa84.00 %-6.10 °C 
02:15:00-3.40 °C1021.90 hPa84.00 %-6.00 °C 
02:00:00-3.20 °C1022.00 hPa84.00 %-5.80 °C 
01:45:00-3.20 °C1022.30 hPa84.00 %-5.80 °C 
01:30:00-3.20 °C1022.20 hPa84.00 %-5.80 °C 
01:15:00-3.10 °C1022.10 hPa83.00 %-5.90 °C 
01:00:00-3.00 °C1022.30 hPa83.00 %-5.80 °C 
00:45:00-2.80 °C1022.40 hPa83.00 %-5.60 °C 
00:30:00-2.60 °C1022.30 hPa83.00 %-5.40 °C 
00:15:00-2.60 °C1022.40 hPa83.00 %-5.40 °C 
00:00:00-2.70 °C1022.30 hPa82.00 %-5.70 °C 

Permanenter Link zu dieser Seite: Wetter im Erzgebirge am 20.03.2015
Performance-Info: Die Erstellung der Seite / Statistik(en) / Tabelle(n) erforderte 5 Datenbankserver-Abfrage(n) und dauerte 99 Millisekunden. (Dieser Messwert ist von der Gesamt-Auslastung des Servers abhängig.)
Erzgebirge - Wetter | Erzgebirge - Wetter (Mobilgeräte) | Komplette Klimadatenbank